createdAt,value
2018-09-02T00:00:07.296Z,1002.08
2018-09-02T00:01:17.158Z,1002.07
2018-09-02T00:02:27.263Z,1002.06
2018-09-02T00:03:37.089Z,1002.06
2018-09-02T00:04:47.185Z,1002.07
2018-09-02T00:05:57.291Z,1002.06
2018-09-02T00:07:07.353Z,1002.01
2018-09-02T00:08:17.216Z,1002
2018-09-02T00:09:27.300Z,1002.04
2018-09-02T00:10:37.400Z,1002.01
2018-09-02T00:11:47.493Z,1001.99
2018-09-02T00:12:57.576Z,1002.04
2018-09-02T00:14:07.674Z,1002.06
2018-09-02T00:15:17.772Z,1002.07
2018-09-02T00:16:27.592Z,1002.02
2018-09-02T00:17:37.423Z,1002.03
2018-09-02T00:18:47.501Z,1001.96
2018-09-02T00:19:57.580Z,1001.93
2018-09-02T00:21:07.675Z,1001.87
2018-09-02T00:22:17.527Z,1001.82
2018-09-02T00:23:27.347Z,1001.74
2018-09-02T00:24:37.424Z,1001.78
2018-09-02T00:25:47.520Z,1001.78
2018-09-02T00:26:57.610Z,1001.76
2018-09-02T00:28:07.697Z,1001.84
2018-09-02T00:29:17.778Z,1001.86
2018-09-02T00:30:27.876Z,1001.85
2018-09-02T00:31:37.694Z,1001.81
2018-09-02T00:32:47.786Z,1001.82
2018-09-02T00:33:57.807Z,1001.84
2018-09-02T00:35:08.184Z,1001.83
2018-09-02T00:36:18.358Z,1001.86
2018-09-02T00:37:28.251Z,1001.87
2018-09-02T00:38:38.339Z,1001.86
2018-09-02T00:39:48.436Z,1001.86
2018-09-02T00:40:58.261Z,1001.8
2018-09-02T00:42:08.320Z,1001.76
2018-09-02T00:43:18.619Z,1001.75
2018-09-02T00:44:28.453Z,1001.78
2018-09-02T00:45:38.579Z,1001.77
2018-09-02T00:46:48.141Z,1001.8
2018-09-02T00:47:58.237Z,1001.78
2018-09-02T00:49:08.570Z,1001.84
2018-09-02T00:50:18.661Z,1001.91
2018-09-02T00:51:28.750Z,1001.96
2018-09-02T00:52:38.844Z,1001.94
2018-09-02T00:53:48.656Z,1001.91
2018-09-02T00:54:58.727Z,1001.92
2018-09-02T00:56:08.552Z,1001.91
2018-09-02T00:57:18.645Z,1001.94
2018-09-02T00:58:28.687Z,1001.93
2018-09-02T00:59:38.881Z,1001.93
2018-09-02T01:00:48.986Z,1001.94
2018-09-02T01:01:59.091Z,1001.97
2018-09-02T01:03:09.236Z,1001.99
2018-09-02T01:04:19.092Z,1001.95
2018-09-02T01:05:29.175Z,1001.96
2018-09-02T01:06:39.004Z,1001.94
2018-09-02T01:07:49.089Z,1001.91
2018-09-02T01:08:59.182Z,1001.82
2018-09-02T01:10:09.271Z,1001.81
2018-09-02T01:11:19.350Z,1001.71
2018-09-02T01:12:29.454Z,1001.71
2018-09-02T01:13:39.548Z,1001.68
2018-09-02T01:14:49.736Z,1001.7
2018-09-02T01:15:59.573Z,1001.76
2018-09-02T01:17:09.379Z,1001.71
2018-09-02T01:18:19.179Z,1001.7
2018-09-02T01:19:29.262Z,1001.67
2018-09-02T01:20:39.832Z,1001.68
2018-09-02T01:21:51.858Z,1001.66
2018-09-02T01:23:01.705Z,1001.65
2018-09-02T01:24:11.380Z,1001.67
2018-09-02T01:25:21.464Z,1001.66
2018-09-02T01:26:31.329Z,1001.69
2018-09-02T01:27:41.125Z,1001.7
2018-09-02T01:28:50.942Z,1001.7
2018-09-02T01:30:01.029Z,1001.64
2018-09-02T01:31:10.822Z,1001.64
2018-09-02T01:32:20.941Z,1001.55
2018-09-02T01:33:31.015Z,1001.56
2018-09-02T01:34:40.840Z,1001.55
2018-09-02T01:35:50.936Z,1001.53
2018-09-02T01:37:01.009Z,1001.52
2018-09-02T01:38:11.148Z,1001.5
2018-09-02T01:39:21.218Z,1001.48
2018-09-02T01:40:31.321Z,1001.51
2018-09-02T01:41:41.398Z,1001.54
2018-09-02T01:42:51.467Z,1001.49
2018-09-02T01:48:48.008Z,1001.5
2018-09-02T01:49:57.813Z,1001.44
2018-09-02T01:51:07.896Z,1001.4
2018-09-02T01:52:17.988Z,1001.36
2018-09-02T01:53:28.101Z,1001.29
2018-09-02T01:54:37.910Z,1001.27
2018-09-02T01:55:48.006Z,1001.28
2018-09-02T01:56:58.095Z,1001.26
2018-09-02T01:58:08.174Z,1001.25
2018-09-02T01:59:17.999Z,1001.24
2018-09-02T02:00:28.108Z,1001.25
2018-09-02T02:01:38.168Z,1001.29
2018-09-02T02:02:48.043Z,1001.3
2018-09-02T02:03:57.872Z,1001.48
2018-09-02T02:05:07.873Z,1001.5
2018-09-02T02:06:17.736Z,1001.52
2018-09-02T02:07:27.829Z,1001.53
2018-09-02T02:08:37.903Z,1001.59
2018-09-02T02:09:47.492Z,1001.54
2018-09-02T02:10:57.563Z,1001.52
2018-09-02T02:12:07.636Z,1001.55
2018-09-02T02:13:17.780Z,1001.56
2018-09-02T02:14:27.870Z,1001.57
2018-09-02T02:15:37.952Z,1001.57
2018-09-02T02:16:48.037Z,1001.56
2018-09-02T02:17:57.859Z,1001.62
2018-09-02T02:19:08.436Z,1001.56
2018-09-02T02:20:18.512Z,1001.59
2018-09-02T02:21:28.581Z,1001.54
2018-09-02T02:22:38.659Z,1001.58
2018-09-02T02:23:48.733Z,1001.55
2018-09-02T02:24:58.820Z,1001.53
2018-09-02T02:26:08.884Z,1001.51
2018-09-02T02:27:18.960Z,1001.49
2018-09-02T02:28:29.044Z,1001.5
2018-09-02T02:29:39.127Z,1001.49
2018-09-02T02:30:49.215Z,1001.48
2018-09-02T02:31:59.320Z,1001.53
2018-09-02T02:33:09.149Z,1001.58
2018-09-02T02:34:18.760Z,1001.59
2018-09-02T02:35:28.830Z,1001.63
2018-09-02T02:36:38.920Z,1001.63
2018-09-02T02:37:48.993Z,1001.61
2018-09-02T02:38:59.068Z,1001.58
2018-09-02T02:40:09.133Z,1001.55
2018-09-02T02:41:19.221Z,1001.59
2018-09-02T02:42:29.324Z,1001.5
2018-09-02T02:43:39.144Z,1001.53
2018-09-02T02:44:49.226Z,1001.52
2018-09-02T02:45:59.092Z,1001.54
2018-09-02T02:47:09.173Z,1001.54
2018-09-02T02:48:19.256Z,1001.6
2018-09-02T02:49:28.827Z,1001.56
2018-09-02T02:50:38.625Z,1001.57
2018-09-02T02:51:48.752Z,1001.54
2018-09-02T02:52:58.823Z,1001.55
2018-09-02T02:54:08.637Z,1001.53
2018-09-02T02:55:18.456Z,1001.59
2018-09-02T02:56:28.536Z,1001.54
2018-09-02T02:57:38.677Z,1001.58
2018-09-02T02:58:48.207Z,1001.64
2018-09-02T02:59:58.294Z,1001.66
2018-09-02T03:01:08.382Z,1001.67
2018-09-02T03:02:18.471Z,1001.7
2018-09-02T03:34:55.782Z,1001.62
2018-09-02T03:36:05.861Z,1001.63
2018-09-02T03:37:15.423Z,1001.67
2018-09-02T03:38:25.519Z,1001.75
2018-09-02T03:39:35.640Z,1001.78
2018-09-02T03:40:45.538Z,1001.78
2018-09-02T03:41:55.356Z,1001.78
2018-09-02T03:43:05.177Z,1001.74
2018-09-02T03:44:15.267Z,1001.67
2018-09-02T03:45:25.075Z,1001.67
2018-09-02T03:46:34.940Z,1001.62
2018-09-02T03:47:44.744Z,1001.56
2018-09-02T03:48:54.804Z,1001.49
2018-09-02T03:50:04.897Z,1001.47
2018-09-02T03:51:14.451Z,1001.49
2018-09-02T03:52:24.646Z,1001.55
2018-09-02T03:53:34.455Z,1001.57
2018-09-02T03:54:44.294Z,1001.6
2018-09-02T03:55:54.444Z,1001.62
2018-09-02T03:57:04.790Z,1001.62
2018-09-02T03:58:14.988Z,1001.58
2018-09-02T03:59:25.071Z,1001.57
2018-09-02T04:00:34.890Z,1001.6
2018-09-02T04:01:45.000Z,1001.61
2018-09-02T04:02:55.102Z,1001.6
2018-09-02T04:04:05.232Z,1001.6
2018-09-02T04:05:15.304Z,1001.61
2018-09-02T04:06:25.416Z,1001.62
2018-09-02T04:07:35.733Z,1001.62
2018-09-02T04:08:45.854Z,1001.59
2018-09-02T04:09:55.727Z,1001.55
2018-09-02T04:11:05.803Z,1001.58
2018-09-02T04:12:16.089Z,1001.63
2018-09-02T04:13:26.179Z,1001.59
2018-09-02T04:14:36.265Z,1001.65
2018-09-02T04:15:46.074Z,1001.62
2018-09-02T04:16:56.162Z,1001.62
2018-09-02T04:18:06.249Z,1001.55
2018-09-02T04:19:16.079Z,1001.54
2018-09-02T04:20:26.166Z,1001.58
2018-09-02T04:21:36.294Z,1001.62
2018-09-02T04:22:46.391Z,1001.63
2018-09-02T04:23:56.472Z,1001.66
2018-09-02T04:25:06.544Z,1001.66
2018-09-02T04:26:16.362Z,1001.71
2018-09-02T04:27:26.233Z,1001.75
2018-09-02T04:28:36.314Z,1001.8
2018-09-02T04:29:46.392Z,1001.84
2018-09-02T04:30:56.487Z,1001.88
2018-09-02T04:32:06.564Z,1001.95
2018-09-02T04:33:16.710Z,1001.92
2018-09-02T04:34:26.529Z,1001.93
2018-09-02T04:35:36.649Z,1001.89
2018-09-02T04:36:46.726Z,1001.87
2018-09-02T04:37:56.814Z,1001.91
2018-09-02T04:39:06.891Z,1001.93
2018-09-02T04:40:16.980Z,1001.9
2018-09-02T04:41:27.073Z,1001.93
2018-09-02T04:42:37.150Z,1001.88
2018-09-02T04:43:46.979Z,1001.82
2018-09-02T04:44:56.912Z,1001.86
2018-09-02T04:46:07.129Z,1001.86
2018-09-02T04:47:17.228Z,1001.83
2018-09-02T04:48:27.325Z,1001.83
2018-09-02T04:49:37.412Z,1001.84
2018-09-02T04:50:47.545Z,1001.83
2018-09-02T04:51:57.378Z,1001.83
2018-09-02T04:53:07.458Z,1001.79
2018-09-02T04:54:17.615Z,1001.75
2018-09-02T04:55:28.335Z,1001.78
2018-09-02T04:56:38.436Z,1001.86
2018-09-02T04:57:48.713Z,1001.89
2018-09-02T04:58:58.533Z,1001.99
2018-09-02T05:00:08.425Z,1002.03
2018-09-02T05:01:18.854Z,1002.05
2018-09-02T05:02:28.988Z,1002.08
2018-09-02T05:03:38.800Z,1002.09
2018-09-02T05:04:48.621Z,1002.04
2018-09-02T05:05:58.451Z,1002.05
2018-09-02T05:07:08.295Z,1002.08
2018-09-02T05:08:18.607Z,1002.08
2018-09-02T05:09:28.421Z,1002.06
2018-09-02T05:10:37.987Z,1002.08
2018-09-02T05:11:47.808Z,1002.09
2018-09-02T05:12:57.903Z,1002.12
2018-09-02T05:14:07.800Z,1002.14
2018-09-02T05:15:18.625Z,1002.13
2018-09-02T05:16:28.716Z,1002.1
2018-09-02T05:17:38.797Z,1002.07
2018-09-02T05:18:48.875Z,1002.11
2018-09-02T05:19:58.956Z,1002.14
2018-09-02T05:21:09.050Z,1002.19
2018-09-02T05:22:19.157Z,1002.19
2018-09-02T05:23:28.977Z,1002.19
2018-09-02T05:24:39.083Z,1002.15
2018-09-02T05:25:49.233Z,1002.08
2018-09-02T05:26:59.328Z,1002.06
2018-09-02T05:28:09.163Z,1002.04
2018-09-02T05:29:19.237Z,1002.08
2018-09-02T05:30:28.802Z,1002.1
2018-09-02T05:31:38.921Z,1002.07
2018-09-02T05:32:49.001Z,1002.06
2018-09-02T05:33:59.072Z,1002.11
2018-09-02T05:35:09.149Z,1002.12
2018-09-02T05:36:18.979Z,1002.08
2018-09-02T05:37:28.795Z,1002.05
2018-09-02T05:38:38.861Z,1002.01
2018-09-02T05:39:48.943Z,1002.05
2018-09-02T05:40:59.023Z,1002.09
2018-09-02T05:42:09.095Z,1002.08
2018-09-02T05:43:19.176Z,1002.1
2018-09-02T05:44:29.253Z,1002.1
2018-09-02T05:45:38.837Z,1002.07
2018-09-02T05:46:48.687Z,1002.03
2018-09-02T05:47:58.767Z,1001.96
2018-09-02T05:49:08.900Z,1001.98
2018-09-02T05:50:19.237Z,1001.91
2018-09-02T05:51:29.377Z,1001.92
2018-09-02T05:52:39.199Z,1001.95
2018-09-02T05:53:49.036Z,1001.94
2018-09-02T05:54:59.169Z,1001.98
2018-09-02T05:56:09.270Z,1001.93
2018-09-02T05:57:19.078Z,1001.96
2018-09-02T05:58:29.344Z,1001.99
2018-09-02T05:59:39.453Z,1001.95
2018-09-02T06:00:49.535Z,1001.9
2018-09-02T06:01:59.365Z,1001.92
2018-09-02T06:03:09.494Z,1001.93
2018-09-02T06:04:19.304Z,1001.87
2018-09-02T06:05:29.385Z,1001.81
2018-09-02T06:06:39.465Z,1001.78
2018-09-02T06:07:49.550Z,1001.85
2018-09-02T06:08:59.368Z,1001.87
2018-09-02T06:10:09.204Z,1001.93
2018-09-02T06:11:19.299Z,1001.93
2018-09-02T06:12:29.214Z,1001.9
2018-09-02T06:13:39.304Z,1001.86
2018-09-02T06:14:49.375Z,1001.82
2018-09-02T06:15:59.238Z,1001.8
2018-09-02T06:17:09.401Z,1001.79
2018-09-02T06:18:19.820Z,1001.75
2018-09-02T06:19:29.897Z,1001.74
2018-09-02T06:20:39.701Z,1001.84
2018-09-02T06:21:49.538Z,1001.83
2018-09-02T06:22:59.616Z,1001.91
2018-09-02T06:24:09.701Z,1001.95
2018-09-02T06:25:19.528Z,1002.03
2018-09-02T06:26:29.627Z,1002.08
2018-09-02T06:27:39.640Z,1002.09
2018-09-02T06:28:49.728Z,1002.08
2018-09-02T06:29:59.832Z,1002.14
2018-09-02T06:31:10.373Z,1002.1
2018-09-02T06:32:20.680Z,1002.23
2018-09-02T06:33:30.766Z,1002.27
2018-09-02T06:34:40.862Z,1002.26
2018-09-02T06:35:50.437Z,1002.29
2018-09-02T06:37:00.587Z,1002.29
2018-09-02T06:38:10.663Z,1002.36
2018-09-02T06:39:20.796Z,1002.35
2018-09-02T06:40:30.911Z,1002.37
2018-09-02T06:41:40.742Z,1002.43
2018-09-02T06:42:50.955Z,1002.39
2018-09-02T06:44:01.039Z,1002.41
2018-09-02T06:45:11.342Z,1002.4
2018-09-02T06:46:21.419Z,1002.42
2018-09-02T06:47:30.962Z,1002.4
2018-09-02T06:48:41.047Z,1002.39
2018-09-02T06:49:51.117Z,1002.39
2018-09-02T06:51:01.221Z,1002.47
2018-09-02T06:52:11.048Z,1002.44
2018-09-02T06:53:20.882Z,1002.49
2018-09-02T06:54:30.989Z,1002.53
2018-09-02T06:55:41.091Z,1002.62
2018-09-02T06:56:51.170Z,1002.64
2018-09-02T06:58:01.259Z,1002.65
2018-09-02T06:59:11.340Z,1002.72
2018-09-02T07:00:21.436Z,1002.72
2018-09-02T07:01:31.531Z,1002.79
2018-09-02T07:02:41.618Z,1002.74
2018-09-02T07:03:51.699Z,1002.78
2018-09-02T07:05:01.856Z,1002.87
2018-09-02T07:06:12.995Z,1002.76
2018-09-02T07:07:23.122Z,1002.85
2018-09-02T07:08:33.471Z,1002.88
2018-09-02T07:09:43.565Z,1002.89
2018-09-02T07:10:53.675Z,1002.86
2018-09-02T07:12:03.559Z,1002.93
2018-09-02T07:13:13.394Z,1002.91
2018-09-02T07:14:23.257Z,1002.91
2018-09-02T07:15:33.444Z,1002.87
2018-09-02T07:16:43.571Z,1002.85
2018-09-02T07:17:53.743Z,1002.83
2018-09-02T07:19:03.828Z,1002.85
2018-09-02T07:20:14.644Z,1002.81
2018-09-02T07:21:24.802Z,1002.8
2018-09-02T07:22:34.881Z,1002.8
2018-09-02T07:23:44.990Z,1002.83
2018-09-02T07:24:55.070Z,1002.78
2018-09-02T07:26:05.154Z,1002.8
2018-09-02T07:27:15.231Z,1002.79
2018-09-02T07:28:25.069Z,1002.72
2018-09-02T07:29:35.224Z,1002.71
2018-09-02T07:30:45.311Z,1002.71
2018-09-02T07:31:55.162Z,1002.74
2018-09-02T07:33:05.267Z,1002.8
2018-09-02T07:34:15.104Z,1002.78
2018-09-02T07:35:25.203Z,1002.69
2018-09-02T07:36:35.317Z,1002.7
2018-09-02T07:37:45.409Z,1002.65
2018-09-02T07:38:55.507Z,1002.72
2018-09-02T07:40:05.671Z,1002.68
2018-09-02T07:41:15.831Z,1002.72
2018-09-02T07:42:25.917Z,1002.71
2018-09-02T07:43:36.058Z,1002.74
2018-09-02T07:44:46.299Z,1002.83
2018-09-02T07:45:56.449Z,1002.85
2018-09-02T07:47:06.594Z,1002.83
2018-09-02T07:48:16.682Z,1002.79
2018-09-02T07:49:26.793Z,1002.85
2018-09-02T07:50:36.952Z,1002.85
2018-09-02T07:51:47.052Z,1002.89
2018-09-02T07:52:57.151Z,1002.85
2018-09-02T07:54:07.245Z,1002.87
2018-09-02T07:55:17.329Z,1002.78
2018-09-02T07:56:27.413Z,1002.77
2018-09-02T07:57:37.225Z,1002.74
2018-09-02T07:58:47.353Z,1002.67
2018-09-02T07:59:57.198Z,1002.74
2018-09-02T08:01:07.295Z,1002.72
2018-09-02T08:02:17.385Z,1002.73
2018-09-02T08:03:27.485Z,1002.78
2018-09-02T08:04:37.561Z,1002.82
2018-09-02T08:05:47.664Z,1002.84
2018-09-02T08:06:57.507Z,1002.86
2018-09-02T08:08:07.608Z,1002.86
2018-09-02T08:09:17.695Z,1002.75
2018-09-02T08:10:27.601Z,1002.67
2018-09-02T08:11:37.428Z,1002.64
2018-09-02T08:12:47.393Z,1002.67
2018-09-02T08:13:57.893Z,1002.69
2018-09-02T08:15:07.997Z,1002.74
2018-09-02T08:16:18.077Z,1002.73
2018-09-02T08:17:27.634Z,1002.74
2018-09-02T08:18:37.203Z,1002.71
2018-09-02T08:19:47.299Z,1002.77
2018-09-02T08:20:57.555Z,1002.76
2018-09-02T08:22:07.441Z,1002.72
2018-09-02T08:23:17.273Z,1002.73
2018-09-02T08:24:27.421Z,1002.78
2018-09-02T08:25:37.517Z,1002.71
2018-09-02T08:26:47.721Z,1002.62
2018-09-02T08:27:58.158Z,1002.66
2018-09-02T08:29:08.264Z,1002.73
2018-09-02T08:30:18.084Z,1002.73
2018-09-02T08:31:28.192Z,1002.71
2018-09-02T08:32:38.017Z,1002.75
2018-09-02T08:33:47.843Z,1002.73
2018-09-02T08:34:57.967Z,1002.69
2018-09-02T08:36:07.783Z,1002.72
2018-09-02T08:37:17.626Z,1002.77
2018-09-02T08:38:27.724Z,1002.75
2018-09-02T08:39:37.916Z,1002.74
2018-09-02T08:40:48.043Z,1002.74
2018-09-02T08:41:58.138Z,1002.73
2018-09-02T08:43:08.292Z,1002.72
2018-09-02T08:44:18.490Z,1002.77
2018-09-02T08:45:29.199Z,1002.75
2018-09-02T08:46:39.319Z,1002.78
2018-09-02T08:47:49.445Z,1002.77
2018-09-02T08:48:59.381Z,1002.81
2018-09-02T08:50:09.503Z,1002.77
2018-09-02T08:51:19.730Z,1002.81
2018-09-02T08:52:30.069Z,1002.82
2018-09-02T08:53:39.913Z,1002.84
2018-09-02T08:54:50.020Z,1002.78
2018-09-02T08:55:59.974Z,1002.77
2018-09-02T08:57:10.685Z,1002.82
2018-09-02T08:58:20.817Z,1002.83
2018-09-02T08:59:30.929Z,1002.74
2018-09-02T09:00:41.065Z,1002.71
2018-09-02T09:01:51.144Z,1002.67
2018-09-02T09:03:01.252Z,1002.65
2018-09-02T09:04:11.349Z,1002.75
2018-09-02T09:05:21.461Z,1002.78
2018-09-02T09:06:31.295Z,1002.82
2018-09-02T09:07:41.684Z,1002.77
2018-09-02T09:08:53.240Z,1002.77
2018-09-02T09:10:05.147Z,1002.74
2018-09-02T09:11:15.227Z,1002.75
2018-09-02T09:12:25.596Z,1002.72
2018-09-02T09:13:35.998Z,1002.74
2018-09-02T09:15:05.535Z,1002.72
2018-09-02T09:16:15.649Z,1002.66
2018-09-02T09:17:26.136Z,1002.69
2018-09-02T09:18:36.241Z,1002.67
2018-09-02T09:19:46.341Z,1002.7
2018-09-02T09:20:56.428Z,1002.63
2018-09-02T09:22:06.632Z,1002.69
2018-09-02T09:23:16.736Z,1002.71
2018-09-02T09:24:26.865Z,1002.7
2018-09-02T09:25:36.987Z,1002.62
2018-09-02T09:26:47.112Z,1002.64
2018-09-02T09:27:56.973Z,1002.65
2018-09-02T09:29:06.544Z,1002.6
2018-09-02T09:30:16.941Z,1002.66
2018-09-02T09:31:27.105Z,1002.67
2018-09-02T09:32:37.190Z,1002.63
2018-09-02T09:33:47.299Z,1002.66
2018-09-02T09:34:57.397Z,1002.67
2018-09-02T09:36:07.510Z,1002.69
2018-09-02T09:37:17.674Z,1002.64
2018-09-02T09:38:27.530Z,1002.71
2018-09-02T09:39:37.667Z,1002.74
2018-09-02T09:40:47.502Z,1002.75
2018-09-02T09:41:57.630Z,1002.8
2018-09-02T09:43:07.782Z,1002.87
2018-09-02T09:44:17.912Z,1002.81
2018-09-02T09:45:28.067Z,1002.87
2018-09-02T09:46:38.252Z,1002.87
2018-09-02T09:47:48.333Z,1002.93
2018-09-02T09:48:58.163Z,1002.94
2018-09-02T09:50:08.250Z,1002.95
2018-09-02T09:51:18.410Z,1002.99
2018-09-02T09:52:28.559Z,1002.94
2018-09-02T09:53:38.665Z,1002.95
2018-09-02T09:54:48.809Z,1002.94
2018-09-02T09:55:58.930Z,1002.97
2018-09-02T09:57:09.104Z,1002.94
2018-09-02T09:58:19.472Z,1002.92
2018-09-02T09:59:29.326Z,1002.97
2018-09-02T10:00:39.177Z,1003
2018-09-02T10:01:49.286Z,1003.02
2018-09-02T10:02:59.493Z,1003.04
2018-09-02T10:04:09.640Z,1003.04
2018-09-02T10:05:19.477Z,1003.06
2018-09-02T10:06:29.051Z,1003.05
2018-09-02T10:07:38.905Z,1003.04
2018-09-02T10:08:48.995Z,1003.05
2018-09-02T10:09:59.150Z,1003.08
2018-09-02T10:11:09.322Z,1003.07
2018-09-02T10:12:19.410Z,1003.06
2018-09-02T10:13:29.518Z,1003.03
2018-09-02T10:14:39.628Z,1003.05
2018-09-02T10:15:49.733Z,1002.99
2018-09-02T10:16:59.320Z,1002.94
2018-09-02T10:18:09.684Z,1002.91
2018-09-02T10:19:20.496Z,1002.87
2018-09-02T10:20:30.076Z,1002.88
2018-09-02T10:21:39.966Z,1002.88
2018-09-02T10:22:49.822Z,1002.91
2018-09-02T10:23:59.656Z,1002.9
2018-09-02T10:25:09.784Z,1002.89
2018-09-02T10:26:19.636Z,1002.87
2018-09-02T10:27:30.198Z,1002.83
2018-09-02T10:28:40.557Z,1002.8
2018-09-02T10:29:50.668Z,1002.83
2018-09-02T10:31:00.522Z,1002.84
2018-09-02T10:32:10.635Z,1002.84
2018-09-02T10:33:20.814Z,1002.87
2018-09-02T10:34:31.311Z,1002.89
2018-09-02T10:35:42.566Z,1002.9
2018-09-02T10:36:52.683Z,1002.91
2018-09-02T10:38:02.816Z,1002.9
2018-09-02T10:39:12.682Z,1002.88
2018-09-02T10:40:22.820Z,1002.95
2018-09-02T10:41:33.149Z,1003.01
2018-09-02T10:42:43.423Z,1002.94
2018-09-02T10:43:53.605Z,1002.96
2018-09-02T10:45:03.733Z,1002.92
2018-09-02T10:46:13.888Z,1002.91
2018-09-02T10:47:24.029Z,1002.86
2018-09-02T10:48:34.158Z,1002.81
2018-09-02T10:49:44.113Z,1002.8
2018-09-02T10:50:54.414Z,1002.78
2018-09-02T10:52:04.558Z,1002.75
2018-09-02T10:53:14.693Z,1002.81
2018-09-02T10:54:24.847Z,1002.79
2018-09-02T10:55:34.705Z,1002.73
2018-09-02T10:56:44.913Z,1002.62
2018-09-02T10:57:54.786Z,1002.55
2018-09-02T10:59:04.610Z,1002.44
2018-09-02T11:00:14.705Z,1002.37
2018-09-02T11:01:24.560Z,1002.26
2018-09-02T11:02:34.731Z,1002.21
2018-09-02T11:03:44.834Z,1002.28
2018-09-02T11:04:54.719Z,1002.25
2018-09-02T11:06:04.851Z,1002.32
2018-09-02T11:07:14.697Z,1002.33
2018-09-02T11:08:24.611Z,1002.34
2018-09-02T11:09:34.609Z,1002.38
2018-09-02T11:10:44.939Z,1002.36
2018-09-02T11:11:54.784Z,1002.38
2018-09-02T11:13:04.701Z,1002.45
2018-09-02T11:14:15.551Z,1002.54
2018-09-02T11:15:25.654Z,1002.64
2018-09-02T11:16:35.777Z,1002.7
2018-09-02T11:17:45.892Z,1002.77
2018-09-02T11:18:56.003Z,1002.79
2018-09-02T11:20:06.213Z,1002.75
2018-09-02T11:21:15.807Z,1002.61
2018-09-02T11:22:25.642Z,1002.47
2018-09-02T11:23:35.762Z,1002.38
2018-09-02T11:24:45.880Z,1002.31
2018-09-02T11:25:56.067Z,1002.29
2018-09-02T11:27:05.922Z,1002.26
2018-09-02T11:28:16.050Z,1002.27
2018-09-02T11:29:26.182Z,1002.27
2018-09-02T11:30:36.307Z,1002.31
2018-09-02T11:31:46.483Z,1002.29
2018-09-02T11:32:56.141Z,1002.31
2018-09-02T11:34:06.285Z,1002.29
2018-09-02T11:35:17.376Z,1002.35
2018-09-02T11:36:27.506Z,1002.34
2018-09-02T11:37:37.632Z,1002.35
2018-09-02T11:38:47.462Z,1002.35
2018-09-02T11:39:57.568Z,1002.37
2018-09-02T11:41:07.395Z,1002.26
2018-09-02T11:42:17.771Z,1002.29
2018-09-02T11:43:27.633Z,1002.24
2018-09-02T11:44:37.730Z,1002.2
2018-09-02T11:45:47.995Z,1002.17
2018-09-02T11:46:58.044Z,1002.17
2018-09-02T11:48:08.988Z,1002.12
2018-09-02T11:49:19.228Z,1002.08
2018-09-02T11:50:29.387Z,1002.07
2018-09-02T11:51:39.633Z,1002.08
2018-09-02T11:52:49.754Z,1002.09
2018-09-02T11:53:59.927Z,1002.05
2018-09-02T11:55:09.799Z,1002.03
2018-09-02T11:56:19.975Z,1002.08
2018-09-02T11:57:29.816Z,1002.09
2018-09-02T11:58:40.146Z,1002.12
2018-09-02T11:59:50.341Z,1002.15
2018-09-02T12:01:01.956Z,1002.17
2018-09-02T12:02:12.059Z,1002.23
2018-09-02T12:03:22.198Z,1002.21
2018-09-02T12:04:32.356Z,1002.28
2018-09-02T12:05:42.664Z,1002.3
2018-09-02T12:06:52.536Z,1002.31
2018-09-02T12:08:02.643Z,1002.28
2018-09-02T12:09:12.758Z,1002.16
2018-09-02T12:10:22.957Z,1002.05
2018-09-02T12:11:32.865Z,1002.09
2018-09-02T12:12:42.854Z,1002.05
2018-09-02T12:13:53.042Z,1002.08
2018-09-02T12:15:03.225Z,1002.03
2018-09-02T12:16:13.132Z,1002.04
2018-09-02T12:17:23.241Z,1002.07
2018-09-02T12:18:33.098Z,1002.11
2018-09-02T12:19:43.166Z,1002.13
2018-09-02T12:20:53.287Z,1002.12
2018-09-02T12:22:03.787Z,1002.15
2018-09-02T12:23:13.653Z,1002.18
2018-09-02T12:24:23.758Z,1002.18
2018-09-02T12:25:33.853Z,1002.14
2018-09-02T12:26:43.962Z,1002.11
2018-09-02T12:27:54.086Z,1002.08
2018-09-02T12:29:04.190Z,1002.09
2018-09-02T12:30:14.360Z,1002.07
2018-09-02T12:31:24.504Z,1002.08
2018-09-02T12:32:34.952Z,1002.09
2018-09-02T12:33:45.072Z,1002.1
2018-09-02T12:34:54.929Z,1002.14
2018-09-02T12:36:04.858Z,1002.18
2018-09-02T12:37:14.936Z,1002.15
2018-09-02T12:38:24.776Z,1002.15
2018-09-02T12:39:34.642Z,1002.19
2018-09-02T12:40:44.756Z,1002.13
2018-09-02T12:41:54.637Z,1002.07
2018-09-02T12:43:04.581Z,1002.01
2018-09-02T12:44:14.726Z,1001.98
2018-09-02T12:45:24.838Z,1001.94
2018-09-02T12:46:34.701Z,1001.94
2018-09-02T12:47:44.843Z,1001.9
2018-09-02T12:48:55.889Z,1001.9
2018-09-02T12:50:05.988Z,1001.87
2018-09-02T12:51:15.824Z,1001.84
2018-09-02T12:52:25.948Z,1001.81
2018-09-02T12:53:36.090Z,1001.77
2018-09-02T12:54:46.457Z,1001.87
2018-09-02T12:55:56.553Z,1001.79
2018-09-02T12:57:06.673Z,1001.74
2018-09-02T12:58:16.801Z,1001.71
2018-09-02T12:59:26.915Z,1001.73
2018-09-02T13:00:36.764Z,1001.72
2018-09-02T13:01:46.880Z,1001.71
2018-09-02T13:02:56.489Z,1001.65
2018-09-02T13:04:06.780Z,1001.68
2018-09-02T13:05:16.960Z,1001.67
2018-09-02T13:06:26.795Z,1001.67
2018-09-02T13:07:36.919Z,1001.67
2018-09-02T13:08:46.745Z,1001.65
2018-09-02T13:09:56.863Z,1001.68
2018-09-02T13:11:07.002Z,1001.66
2018-09-02T13:12:17.366Z,1001.66
2018-09-02T13:13:27.459Z,1001.59
2018-09-02T13:14:37.584Z,1001.59
2018-09-02T13:15:47.660Z,1001.62
2018-09-02T13:16:57.527Z,1001.67
2018-09-02T13:18:07.690Z,1001.73
2018-09-02T13:19:17.823Z,1001.77
2018-09-02T13:20:27.952Z,1001.84
2018-09-02T13:21:37.822Z,1001.88
2018-09-02T13:22:47.667Z,1001.95
2018-09-02T13:23:57.844Z,1002.02
2018-09-02T13:25:08.585Z,1002.01
2018-09-02T13:26:18.690Z,1001.99
2018-09-02T13:27:28.523Z,1001.97
2018-09-02T13:28:38.446Z,1001.99
2018-09-02T13:29:48.307Z,1002.01
2018-09-02T13:30:58.651Z,1002
2018-09-02T13:32:08.745Z,1001.94
2018-09-02T13:33:18.869Z,1001.86
2018-09-02T13:34:28.720Z,1001.79
2018-09-02T13:35:38.564Z,1001.76
2018-09-02T13:36:48.692Z,1001.77
2018-09-02T13:37:59.005Z,1001.81
2018-09-02T13:39:08.857Z,1001.81
2018-09-02T13:40:19.140Z,1001.79
2018-09-02T13:41:30.059Z,1001.8
2018-09-02T13:42:40.174Z,1001.79
2018-09-02T13:43:49.463Z,1001.8
2018-09-02T13:44:59.327Z,1001.79
2018-09-02T13:46:09.549Z,1001.77
2018-09-02T13:47:19.647Z,1001.77
2018-09-02T13:48:29.274Z,1001.7
2018-09-02T13:49:39.587Z,1001.68
2018-09-02T13:50:49.437Z,1001.66
2018-09-02T13:51:59.512Z,1001.63
2018-09-02T13:53:09.623Z,1001.63
2018-09-02T13:54:19.774Z,1001.64
2018-09-02T13:55:29.899Z,1001.63
2018-09-02T13:56:40.216Z,1001.65
2018-09-02T13:57:50.325Z,1001.62
2018-09-02T13:59:00.773Z,1001.57
2018-09-02T14:00:10.886Z,1001.54
2018-09-02T14:01:20.996Z,1001.54
2018-09-02T14:02:31.088Z,1001.55
2018-09-02T14:03:41.217Z,1001.56
2018-09-02T14:04:51.325Z,1001.55
2018-09-02T14:06:01.403Z,1001.61
2018-09-02T14:07:11.239Z,1001.61
2018-09-02T14:08:20.935Z,1001.57
2018-09-02T14:09:30.852Z,1001.58
2018-09-02T14:10:40.953Z,1001.61
2018-09-02T14:11:50.798Z,1001.63
2018-09-02T14:13:01.136Z,1001.58
2018-09-02T14:14:11.234Z,1001.66
2018-09-02T14:15:21.446Z,1001.64
2018-09-02T14:16:31.552Z,1001.63
2018-09-02T14:17:41.204Z,1001.68
2018-09-02T14:18:51.733Z,1001.67
2018-09-02T14:20:01.955Z,1001.66
2018-09-02T14:21:12.359Z,1001.66
2018-09-02T14:22:22.395Z,1001.67
2018-09-02T14:23:32.438Z,1001.68
2018-09-02T14:24:42.709Z,1001.67
2018-09-02T14:25:53.019Z,1001.67
2018-09-02T14:27:03.156Z,1001.72
2018-09-02T14:28:13.677Z,1001.71
2018-09-02T14:29:24.434Z,1001.75
2018-09-02T14:30:34.739Z,1001.83
2018-09-02T14:31:45.151Z,1001.83
2018-09-02T14:32:55.865Z,1001.86
2018-09-02T14:34:06.124Z,1001.85
2018-09-02T14:35:15.989Z,1001.86
2018-09-02T14:36:26.134Z,1001.86
2018-09-02T14:37:36.232Z,1001.81
2018-09-02T14:38:46.308Z,1001.81
2018-09-02T14:39:56.419Z,1001.79
2018-09-02T14:41:06.525Z,1001.8
2018-09-02T14:42:16.380Z,1001.8
2018-09-02T14:43:26.489Z,1001.72
2018-09-02T14:44:36.332Z,1001.6
2018-09-02T14:45:46.457Z,1001.42